Time;durP1;ratioP1;P1;durP2;ratioP2;P2;SDS_P1;SDS_P2;PMS_P1;PMS_P2;Temp;Humidity;BMP_temperature;BMP_pressure;BME280_temperature;BME280_humidity;BME280_pressure;Samples;Min_cycle;Max_cycle;Signal;HPM_P1;HPM_P2
2023/06/18 00:01:03;;;;;;;7.30;6.60;;;15.10;99.90;;;;;;488083;243;29324;-77
2023/06/18 00:03:04;;;;;;;6.97;6.30;;;15.00;99.90;;;;;;488094;243;29416;-76
2023/06/18 00:05:05;;;;;;;7.77;6.23;;;15.00;99.90;;;;;;488044;243;29274;-76
2023/06/18 00:07:06;;;;;;;7.00;6.30;;;15.00;99.90;;;;;;488064;243;29579;-76
2023/06/18 00:09:08;;;;;;;7.43;6.10;;;14.90;99.90;;;;;;488098;243;28872;-76
2023/06/18 00:11:09;;;;;;;7.83;6.50;;;14.90;99.90;;;;;;488060;243;28832;-76
2023/06/18 00:13:10;;;;;;;7.47;6.67;;;14.90;99.90;;;;;;488064;243;28930;-77
2023/06/18 00:15:11;;;;;;;6.53;5.83;;;14.90;99.90;;;;;;488068;243;28888;-77
2023/06/18 00:17:13;;;;;;;6.80;6.13;;;14.90;99.90;;;;;;488093;243;28871;-76
2023/06/18 00:19:14;;;;;;;7.27;6.37;;;15.00;99.90;;;;;;488093;243;28846;-76
2023/06/18 00:21:15;;;;;;;6.63;5.83;;;15.00;99.90;;;;;;488118;243;28896;-76
2023/06/18 00:23:16;;;;;;;7.27;6.50;;;15.00;99.90;;;;;;488117;243;28933;-76
2023/06/18 00:25:18;;;;;;;12.57;6.80;;;15.00;99.90;;;;;;488067;243;29275;-76
2023/06/18 00:27:20;;;;;;;8.37;6.23;;;15.00;99.90;;;;;;488080;243;29424;-78
2023/06/18 00:29:21;;;;;;;7.87;7.07;;;14.80;99.90;;;;;;488028;243;30130;-75
2023/06/18 00:31:21;;;;;;;9.10;6.57;;;14.70;99.90;;;;;;488064;243;29269;-77
2023/06/18 00:33:23;;;;;;;7.53;6.53;;;14.60;99.90;;;;;;488098;243;28843;-77
2023/06/18 00:35:24;;;;;;;6.83;6.13;;;14.70;99.90;;;;;;488011;243;28897;-76
2023/06/18 00:37:25;;;;;;;7.70;7.00;;;14.60;99.90;;;;;;488071;243;28936;-76
2023/06/18 00:39:26;;;;;;;7.93;7.13;;;14.60;99.90;;;;;;488068;243;28796;-75
2023/06/18 00:41:28;;;;;;;7.60;6.80;;;14.60;99.90;;;;;;488075;243;28857;-76
2023/06/18 00:43:29;;;;;;;7.13;6.40;;;14.50;99.90;;;;;;488067;243;28873;-77
2023/06/18 00:45:30;;;;;;;8.13;6.57;;;14.50;99.90;;;;;;488111;243;28819;-76
2023/06/18 00:47:31;;;;;;;7.27;6.53;;;14.40;99.90;;;;;;488055;243;28968;-78
2023/06/18 00:49:33;;;;;;;7.17;5.97;;;14.40;99.90;;;;;;488049;243;28871;-76
2023/06/18 00:51:34;;;;;;;8.33;6.93;;;14.40;99.90;;;;;;488048;243;29265;-77
2023/06/18 00:53:35;;;;;;;9.50;6.67;;;14.30;99.90;;;;;;488072;243;29317;-77
2023/06/18 00:55:37;;;;;;;9.07;7.50;;;14.40;99.90;;;;;;488069;243;29306;-76
2023/06/18 00:57:38;;;;;;;7.50;6.30;;;14.40;99.90;;;;;;488025;243;28924;-77
2023/06/18 00:59:42;;;;;;;6.60;5.90;;;14.40;99.90;;;;;;488069;243;28826;-77
2023/06/18 01:01:41;;;;;;;8.53;6.50;;;14.40;99.90;;;;;;487869;243;28857;-76
2023/06/18 01:03:41;;;;;;;7.00;5.93;;;14.40;99.90;;;;;;488096;243;28934;-77
2023/06/18 01:05:43;;;;;;;6.50;5.80;;;14.40;99.90;;;;;;488110;243;28889;-76
2023/06/18 01:07:47;;;;;;;7.63;6.90;;;14.40;99.90;;;;;;488059;243;28857;-76
2023/06/18 01:09:48;;;;;;;6.53;5.93;;;14.30;99.90;;;;;;487770;243;28817;-77
2023/06/18 01:11:46;;;;;;;8.60;5.93;;;14.30;99.90;;;;;;487883;243;28902;-76
2023/06/18 01:13:48;;;;;;;7.47;6.10;;;14.30;99.90;;;;;;488117;243;28862;-77
2023/06/18 01:15:49;;;;;;;7.07;6.37;;;14.30;99.90;;;;;;488100;243;29422;-77
2023/06/18 01:17:51;;;;;;;7.50;6.33;;;14.20;99.90;;;;;;488151;243;29441;-76
2023/06/18 01:19:55;;;;;;;7.30;6.57;;;14.20;99.90;;;;;;488138;243;29277;-76
2023/06/18 01:21:53;;;;;;;8.70;7.03;;;14.20;99.90;;;;;;487871;243;29307;-77
2023/06/18 01:23:54;;;;;;;7.50;6.63;;;14.20;99.90;;;;;;488173;243;28978;-77
2023/06/18 01:25:57;;;;;;;6.63;6.03;;;14.00;99.90;;;;;;488194;243;28905;-77
2023/06/18 01:27:57;;;;;;;7.60;6.80;;;14.10;99.90;;;;;;488069;243;28849;-77
2023/06/18 01:29:58;;;;;;;7.07;6.30;;;14.00;99.90;;;;;;488132;243;28925;-76
2023/06/18 01:31:59;;;;;;;11.17;7.13;;;14.00;99.90;;;;;;488129;243;28928;-76
2023/06/18 01:34:01;;;;;;;6.23;5.63;;;14.00;99.90;;;;;;488166;243;29261;-78
2023/06/18 01:36:01;;;;;;;7.70;6.53;;;14.00;99.90;;;;;;488152;243;28817;-77
2023/06/18 01:38:03;;;;;;;7.10;6.10;;;14.00;99.90;;;;;;488126;243;28888;-76
2023/06/18 01:40:04;;;;;;;6.50;5.73;;;14.10;99.90;;;;;;488110;243;29276;-76
2023/06/18 01:42:06;;;;;;;7.97;6.70;;;14.00;99.90;;;;;;488112;243;29335;-77
2023/06/18 01:44:07;;;;;;;7.73;6.80;;;14.00;99.90;;;;;;488125;243;28812;-78
2023/06/18 01:46:08;;;;;;;6.57;5.97;;;14.00;99.90;;;;;;488135;243;28831;-77
2023/06/18 01:48:09;;;;;;;7.13;6.43;;;13.90;99.90;;;;;;488115;243;28840;-78
2023/06/18 01:50:10;;;;;;;7.03;6.33;;;13.80;99.90;;;;;;488133;243;28794;-77
2023/06/18 01:52:15;;;;;;;7.30;6.00;;;13.80;99.90;;;;;;488105;243;28862;-77
2023/06/18 01:54:13;;;;;;;6.77;5.97;;;13.80;99.90;;;;;;487796;243;28900;-76
2023/06/18 01:56:14;;;;;;;7.17;6.47;;;13.80;99.90;;;;;;488118;243;28845;-76
2023/06/18 01:58:15;;;;;;;7.13;5.97;;;13.90;99.90;;;;;;488091;243;29288;-77
2023/06/18 02:00:16;;;;;;;7.40;6.60;;;13.80;99.90;;;;;;488082;243;28497;-76
2023/06/18 02:02:18;;;;;;;7.50;6.80;;;13.80;99.90;;;;;;488094;243;28858;-77
2023/06/18 02:04:19;;;;;;;6.77;6.10;;;13.80;99.90;;;;;;488024;243;30183;-76
2023/06/18 02:06:20;;;;;;;6.60;6.00;;;13.70;99.90;;;;;;488121;243;29239;-76
2023/06/18 02:08:21;;;;;;;8.27;6.53;;;13.60;99.90;;;;;;488075;243;29313;-77
2023/06/18 02:10:23;;;;;;;7.10;6.40;;;13.70;99.90;;;;;;488069;243;29462;-75
2023/06/18 02:12:24;;;;;;;6.93;6.30;;;13.70;99.90;;;;;;488068;243;28505;-76
2023/06/18 02:14:25;;;;;;;11.10;5.90;;;13.80;99.90;;;;;;488119;243;28793;-76
2023/06/18 02:16:26;;;;;;;8.83;6.57;;;13.80;99.90;;;;;;488113;243;28530;-76
2023/06/18 02:18:28;;;;;;;6.77;6.07;;;13.80;99.90;;;;;;488103;243;28968;-77
2023/06/18 02:20:29;;;;;;;7.20;6.00;;;13.70;99.90;;;;;;488118;243;28516;-76
2023/06/18 02:22:30;;;;;;;8.70;6.87;;;13.60;99.90;;;;;;488118;243;28855;-77
2023/06/18 02:24:32;;;;;;;6.53;5.93;;;13.50;99.90;;;;;;488065;243;28654;-76
2023/06/18 02:26:33;;;;;;;6.90;6.20;;;13.40;99.90;;;;;;488061;243;28851;-76
2023/06/18 02:28:34;;;;;;;7.67;6.60;;;13.50;99.90;;;;;;488091;243;28636;-76
2023/06/18 02:30:35;;;;;;;6.83;5.80;;;13.40;99.90;;;;;;488155;243;29258;-76
2023/06/18 02:32:39;;;;;;;9.13;6.87;;;13.40;99.90;;;;;;488168;243;29428;-76
2023/06/18 02:34:40;;;;;;;7.87;7.07;;;13.30;99.90;;;;;;487919;243;29327;-77
2023/06/18 02:36:39;;;;;;;7.70;6.90;;;13.30;99.90;;;;;;487979;243;28816;-77
2023/06/18 02:38:40;;;;;;;9.93;6.83;;;13.20;99.90;;;;;;488158;243;28577;-76
2023/06/18 02:40:41;;;;;;;8.70;6.57;;;13.20;99.90;;;;;;488131;243;28456;-78
2023/06/18 02:42:50;;;;;;;6.93;6.23;;;13.20;99.90;;;;;;488129;243;28870;-78
2023/06/18 02:44:50;;;;;;;8.00;6.80;;;13.30;99.90;;;;;;488043;243;28949;-76
2023/06/18 02:46:51;;;;;;;7.37;6.40;;;13.40;99.90;;;;;;488125;243;29026;-76
2023/06/18 02:48:52;;;;;;;7.93;6.97;;;13.40;99.90;;;;;;488157;243;28325;-77
2023/06/18 02:50:54;;;;;;;8.20;6.70;;;13.40;99.90;;;;;;488118;243;28388;-76
2023/06/18 02:52:55;;;;;;;7.83;6.40;;;13.40;99.90;;;;;;488094;243;28840;-76
2023/06/18 02:54:56;;;;;;;7.97;7.10;;;13.30;99.90;;;;;;488088;243;28904;-77
2023/06/18 02:56:57;;;;;;;8.30;6.87;;;13.30;99.90;;;;;;488099;243;28587;-76
2023/06/18 02:58:59;;;;;;;9.47;6.27;;;13.20;99.90;;;;;;488081;243;28408;-77
2023/06/18 03:01:00;;;;;;;7.50;6.80;;;13.20;99.90;;;;;;488083;243;28873;-76
2023/06/18 03:03:01;;;;;;;7.03;6.33;;;13.10;99.90;;;;;;488113;243;28852;-77
2023/06/18 03:05:02;;;;;;;8.07;6.40;;;13.00;99.90;;;;;;488103;243;28656;-76
2023/06/18 03:07:04;;;;;;;7.20;6.00;;;13.00;99.90;;;;;;488081;243;28989;-77
2023/06/18 03:09:05;;;;;;;7.43;6.73;;;13.00;99.90;;;;;;488076;243;28944;-76
2023/06/18 03:11:06;;;;;;;7.40;6.63;;;13.00;99.90;;;;;;488119;243;28823;-76
2023/06/18 03:13:07;;;;;;;8.37;7.30;;;13.00;99.90;;;;;;488111;243;28325;-76
2023/06/18 03:15:09;;;;;;;6.73;6.13;;;13.00;99.90;;;;;;488117;243;28481;-76
2023/06/18 03:17:10;;;;;;;8.13;6.63;;;13.00;99.90;;;;;;488097;243;28451;-77
2023/06/18 03:19:11;;;;;;;7.90;7.10;;;13.00;99.90;;;;;;488099;243;28303;-77
2023/06/18 03:21:12;;;;;;;6.67;5.97;;;12.90;99.90;;;;;;488129;243;28588;-77
2023/06/18 03:23:14;;;;;;;6.93;6.30;;;13.00;99.90;;;;;;488090;243;28582;-77
2023/06/18 03:25:15;;;;;;;8.33;6.97;;;13.00;99.90;;;;;;488115;243;28581;-77
2023/06/18 03:27:16;;;;;;;7.17;6.47;;;13.00;99.90;;;;;;488091;243;28534;-78
2023/06/18 03:29:17;;;;;;;6.73;6.03;;;13.00;99.90;;;;;;488097;243;30279;-77
2023/06/18 03:31:21;;;;;;;7.43;6.73;;;13.00;99.90;;;;;;488094;243;29393;-77
2023/06/18 03:33:21;;;;;;;7.97;7.20;;;13.00;99.90;;;;;;487958;243;29001;-76
2023/06/18 03:35:21;;;;;;;9.30;7.33;;;13.10;99.90;;;;;;488037;243;28579;-77
2023/06/18 03:37:23;;;;;;;7.60;6.80;;;13.10;99.90;;;;;;488101;243;28464;-76
2023/06/18 03:39:24;;;;;;;7.03;6.33;;;13.10;99.90;;;;;;488029;243;28791;-76
2023/06/18 03:41:25;;;;;;;7.13;6.43;;;13.20;99.90;;;;;;488018;243;28530;-76
2023/06/18 03:43:26;;;;;;;7.90;7.00;;;13.20;99.90;;;;;;488018;243;28648;-77
2023/06/18 03:45:28;;;;;;;9.33;7.00;;;13.20;99.90;;;;;;488039;243;28494;-76
2023/06/18 03:47:29;;;;;;;7.40;6.70;;;13.30;99.90;;;;;;488060;243;28950;-77
2023/06/18 03:49:30;;;;;;;8.43;7.10;;;13.30;99.90;;;;;;487950;243;28410;-76
2023/06/18 03:51:31;;;;;;;9.57;7.63;;;13.30;99.90;;;;;;488080;243;28574;-76
2023/06/18 03:53:36;;;;;;;7.37;6.67;;;13.30;99.90;;;;;;488093;243;29343;-77
2023/06/18 03:55:34;;;;;;;8.00;7.00;;;13.20;99.90;;;;;;487754;243;28821;-77
2023/06/18 03:57:35;;;;;;;8.57;7.20;;;13.30;99.90;;;;;;488073;243;28848;-76
2023/06/18 03:59:37;;;;;;;8.53;6.90;;;13.40;99.90;;;;;;488105;243;29497;-77
2023/06/18 04:01:38;;;;;;;7.93;6.27;;;13.30;99.90;;;;;;488090;243;29386;-76
2023/06/18 04:03:39;;;;;;;6.93;6.23;;;13.40;99.90;;;;;;488108;243;29098;-77
2023/06/18 04:05:40;;;;;;;8.03;7.23;;;13.40;99.90;;;;;;488084;243;28746;-76
2023/06/18 04:07:41;;;;;;;9.83;6.23;;;13.40;99.90;;;;;;488088;243;28914;-76
2023/06/18 04:09:43;;;;;;;6.80;6.10;;;13.40;99.90;;;;;;488100;243;28853;-77
2023/06/18 04:11:45;;;;;;;7.47;6.77;;;13.50;99.90;;;;;;488105;243;28415;-76
2023/06/18 04:13:45;;;;;;;8.07;7.27;;;13.50;99.90;;;;;;488000;243;28542;-77
2023/06/18 04:15:46;;;;;;;7.70;6.90;;;13.60;99.90;;;;;;488056;243;28842;-76
2023/06/18 04:17:48;;;;;;;9.50;6.87;;;13.70;99.90;;;;;;488062;243;28934;-76
2023/06/18 04:19:49;;;;;;;7.97;7.17;;;13.70;99.90;;;;;;488059;243;29311;-76
2023/06/18 04:21:50;;;;;;;7.70;6.90;;;13.80;99.90;;;;;;488089;243;28544;-76
2023/06/18 04:23:51;;;;;;;7.30;6.50;;;13.80;99.90;;;;;;488064;243;29340;-77
2023/06/18 04:25:53;;;;;;;7.73;6.93;;;13.90;99.90;;;;;;488029;243;29321;-76
2023/06/18 04:27:54;;;;;;;7.87;6.83;;;13.90;99.90;;;;;;488054;243;29341;-76
2023/06/18 04:29:55;;;;;;;7.70;6.90;;;14.10;99.90;;;;;;488072;243;29255;-77
2023/06/18 04:31:56;;;;;;;8.67;7.07;;;14.20;99.90;;;;;;488086;243;28881;-77
2023/06/18 04:33:58;;;;;;;7.23;6.53;;;14.20;99.90;;;;;;488068;243;28890;-77
2023/06/18 04:35:59;;;;;;;7.60;6.80;;;14.40;99.90;;;;;;488067;243;28943;-76
2023/06/18 04:38:00;;;;;;;7.53;6.67;;;14.50;99.90;;;;;;488048;243;28835;-77
2023/06/18 04:40:03;;;;;;;7.03;6.17;;;14.50;99.90;;;;;;488071;243;28839;-76
2023/06/18 04:42:03;;;;;;;8.40;6.97;;;14.60;99.90;;;;;;487930;243;28871;-76
2023/06/18 04:44:04;;;;;;;8.13;7.27;;;14.60;99.90;;;;;;488057;243;28885;-77
2023/06/18 04:46:05;;;;;;;7.73;6.93;;;14.60;99.90;;;;;;488067;243;28898;-76
2023/06/18 04:48:08;;;;;;;10.43;6.70;;;14.50;99.90;;;;;;488065;243;29387;-77
2023/06/18 04:50:08;;;;;;;7.33;6.63;;;14.50;99.90;;;;;;487998;243;29938;-76
2023/06/18 04:52:10;;;;;;;7.27;6.57;;;14.50;99.90;;;;;;488056;243;29247;-76
2023/06/18 04:54:11;;;;;;;8.97;6.90;;;14.60;99.90;;;;;;488036;243;28848;-77
2023/06/18 04:56:12;;;;;;;10.27;6.90;;;14.60;99.90;;;;;;488056;243;28909;-77
2023/06/18 04:58:13;;;;;;;7.63;6.83;;;14.70;99.90;;;;;;488018;243;28865;-76
2023/06/18 05:00:14;;;;;;;8.13;7.33;;;14.80;99.90;;;;;;488050;243;28851;-77
2023/06/18 05:02:15;;;;;;;8.33;5.80;;;14.80;99.90;;;;;;488088;243;28924;-77
2023/06/18 05:04:16;;;;;;;7.60;6.80;;;14.80;99.90;;;;;;488079;243;28853;-77
2023/06/18 05:06:18;;;;;;;10.40;7.00;;;14.90;99.90;;;;;;487760;243;28842;-77
2023/06/18 05:08:19;;;;;;;7.60;6.80;;;14.90;99.90;;;;;;487418;243;28934;-76
2023/06/18 05:10:21;;;;;;;7.80;6.40;;;14.90;99.90;;;;;;487695;243;29854;-76
2023/06/18 05:12:21;;;;;;;8.07;7.03;;;14.90;99.90;;;;;;487979;243;29288;-76
2023/06/18 05:14:23;;;;;;;7.87;6.87;;;15.00;99.90;;;;;;488102;243;29472;-76
2023/06/18 05:16:24;;;;;;;8.97;7.10;;;15.20;99.90;;;;;;488110;243;29283;-76
2023/06/18 05:18:25;;;;;;;7.00;6.30;;;15.30;99.90;;;;;;488083;243;28852;-76
2023/06/18 05:20:26;;;;;;;7.80;6.73;;;15.40;99.90;;;;;;488088;243;28997;-76
2023/06/18 05:22:28;;;;;;;8.83;7.97;;;15.40;99.90;;;;;;488118;243;28883;-77
2023/06/18 05:24:29;;;;;;;7.20;6.50;;;15.40;99.90;;;;;;488128;243;28845;-77
2023/06/18 05:26:31;;;;;;;8.00;7.20;;;15.50;99.90;;;;;;488133;243;28906;-76
2023/06/18 05:28:31;;;;;;;7.73;6.70;;;15.50;99.90;;;;;;488052;243;28863;-76
2023/06/18 05:30:33;;;;;;;8.17;7.07;;;15.60;99.90;;;;;;488051;243;28897;-76
2023/06/18 05:32:34;;;;;;;8.90;8.00;;;15.60;99.90;;;;;;488059;243;28937;-76
2023/06/18 05:34:35;;;;;;;8.37;7.30;;;15.70;99.90;;;;;;488103;243;28847;-77
2023/06/18 05:36:36;;;;;;;7.70;6.90;;;15.80;99.90;;;;;;488065;243;29240;-77
2023/06/18 05:38:38;;;;;;;8.23;6.73;;;15.90;99.90;;;;;;488056;243;29342;-76
2023/06/18 05:40:39;;;;;;;9.43;7.07;;;16.00;99.90;;;;;;488053;243;29262;-76
2023/06/18 05:42:40;;;;;;;7.60;6.83;;;16.10;99.90;;;;;;488089;243;28932;-76
2023/06/18 05:44:41;;;;;;;8.37;6.83;;;16.20;99.90;;;;;;488082;243;28955;-77
2023/06/18 05:46:43;;;;;;;8.10;7.17;;;16.30;99.90;;;;;;488060;243;28967;-76
2023/06/18 05:48:44;;;;;;;9.57;7.70;;;16.30;99.90;;;;;;488082;243;28977;-77
2023/06/18 05:50:45;;;;;;;8.87;7.50;;;16.40;99.90;;;;;;488002;243;28804;-77
2023/06/18 05:52:46;;;;;;;6.87;6.20;;;16.40;99.90;;;;;;488038;243;28987;-77
2023/06/18 05:54:48;;;;;;;9.13;7.10;;;16.40;99.90;;;;;;488102;243;29323;-76
2023/06/18 05:56:49;;;;;;;7.33;6.57;;;16.50;99.90;;;;;;488074;243;28831;-77
2023/06/18 05:58:51;;;;;;;8.87;7.50;;;16.60;99.90;;;;;;487937;243;28846;-77
2023/06/18 06:00:51;;;;;;;7.63;6.93;;;16.70;99.90;;;;;;488071;243;29267;-77
2023/06/18 06:02:53;;;;;;;7.73;7.03;;;16.80;99.90;;;;;;488066;243;29442;-76
2023/06/18 06:04:54;;;;;;;7.73;7.10;;;16.80;99.90;;;;;;488094;243;29524;-76
2023/06/18 06:06:55;;;;;;;7.40;6.70;;;16.90;99.90;;;;;;488129;243;28893;-77
2023/06/18 06:08:56;;;;;;;8.67;7.83;;;17.00;99.90;;;;;;488100;243;28839;-76
2023/06/18 06:10:58;;;;;;;8.13;7.30;;;17.10;99.90;;;;;;488088;243;28833;-76
2023/06/18 06:12:59;;;;;;;8.03;7.23;;;17.10;99.90;;;;;;488110;243;28878;-77
2023/06/18 06:15:00;;;;;;;9.93;7.77;;;17.10;99.90;;;;;;488101;243;28839;-76
2023/06/18 06:17:01;;;;;;;9.10;7.40;;;17.10;99.90;;;;;;488101;243;28908;-76
2023/06/18 06:19:03;;;;;;;9.70;6.40;;;17.10;99.90;;;;;;488062;243;28893;-77
2023/06/18 06:21:04;;;;;;;8.30;7.17;;;17.20;99.90;;;;;;488114;243;28818;-76
2023/06/18 06:23:05;;;;;;;9.57;7.33;;;17.30;99.90;;;;;;488113;243;28958;-77
2023/06/18 06:25:06;;;;;;;7.90;7.20;;;17.40;99.90;;;;;;488115;243;28905;-76
2023/06/18 06:27:08;;;;;;;8.43;7.60;;;17.40;99.90;;;;;;488127;243;29326;-77
2023/06/18 06:29:09;;;;;;;7.27;6.67;;;17.50;99.90;;;;;;488159;243;29342;-78
2023/06/18 06:31:10;;;;;;;7.87;7.10;;;17.50;99.90;;;;;;488075;243;29426;-76
2023/06/18 06:33:12;;;;;;;7.67;6.97;;;17.60;99.90;;;;;;488038;243;28854;-77
2023/06/18 06:35:13;;;;;;;8.83;7.60;;;17.70;99.90;;;;;;487997;243;28850;-76
2023/06/18 06:37:14;;;;;;;10.27;7.17;;;17.80;99.90;;;;;;488043;243;28853;-77
2023/06/18 06:39:16;;;;;;;7.67;6.97;;;17.80;99.90;;;;;;488075;243;28870;-76
2023/06/18 06:41:17;;;;;;;7.70;6.90;;;17.90;99.90;;;;;;488061;243;28815;-77
2023/06/18 06:43:18;;;;;;;7.67;6.97;;;18.00;99.90;;;;;;488049;243;28862;-76
2023/06/18 06:45:19;;;;;;;8.17;7.27;;;18.10;99.90;;;;;;488037;243;28812;-77
2023/06/18 06:47:20;;;;;;;7.20;6.60;;;18.20;99.90;;;;;;488081;243;28913;-76
2023/06/18 06:49:22;;;;;;;8.30;7.50;;;18.40;99.90;;;;;;488092;243;29240;-77
2023/06/18 06:51:23;;;;;;;7.83;6.97;;;18.50;99.90;;;;;;488084;243;29424;-77
2023/06/18 06:53:24;;;;;;;8.57;7.67;;;18.60;99.90;;;;;;488016;243;29332;-76
2023/06/18 06:55:25;;;;;;;8.77;7.20;;;18.70;99.90;;;;;;488033;243;29288;-77
2023/06/18 06:57:27;;;;;;;8.57;7.50;;;18.80;99.90;;;;;;488029;243;28875;-77
2023/06/18 06:59:28;;;;;;;8.00;7.20;;;18.90;99.90;;;;;;488101;243;28848;-77
2023/06/18 07:01:29;;;;;;;7.77;6.97;;;19.10;99.90;;;;;;488065;243;28832;-77
2023/06/18 07:03:31;;;;;;;7.70;6.90;;;19.20;99.90;;;;;;488068;243;28940;-78
2023/06/18 07:05:32;;;;;;;8.90;6.77;;;19.40;99.90;;;;;;488051;243;28791;-77
2023/06/18 07:07:33;;;;;;;8.07;7.27;;;19.60;99.90;;;;;;488025;242;28901;-77
2023/06/18 07:09:34;;;;;;;7.03;6.30;;;19.70;99.90;;;;;;488041;243;28970;-77
2023/06/18 07:11:40;;;;;;;10.30;6.50;;;19.80;99.90;;;;;;488072;243;28832;-77
2023/06/18 07:13:39;;;;;;;8.33;6.80;;;20.00;99.90;;;;;;487948;243;28830;-77
2023/06/18 07:15:41;;;;;;;6.70;6.10;;;20.10;99.90;;;;;;488046;243;28859;-78
2023/06/18 07:17:42;;;;;;;6.37;5.77;;;20.20;99.90;;;;;;488031;243;28871;-76
2023/06/18 07:19:43;;;;;;;7.07;6.13;;;20.30;99.90;;;;;;488030;243;29315;-77
2023/06/18 07:21:44;;;;;;;10.33;6.80;;;20.40;99.90;;;;;;488048;243;29466;-77
2023/06/18 07:23:46;;;;;;;9.03;6.63;;;20.50;99.90;;;;;;488080;243;29395;-77
2023/06/18 07:25:47;;;;;;;6.00;5.50;;;20.60;99.90;;;;;;488049;243;28926;-78
2023/06/18 07:27:48;;;;;;;6.80;6.10;;;20.70;99.50;;;;;;488001;243;28879;-77
2023/06/18 07:29:49;;;;;;;7.20;6.50;;;20.90;98.90;;;;;;488001;243;28844;-78
2023/06/18 07:31:51;;;;;;;7.27;6.27;;;21.10;97.50;;;;;;488031;243;29112;-77
2023/06/18 07:33:53;;;;;;;6.20;5.60;;;21.40;95.60;;;;;;488067;243;28925;-77
2023/06/18 07:35:53;;;;;;;8.70;6.03;;;21.70;94.90;;;;;;487990;243;28920;-78
2023/06/18 07:37:54;;;;;;;6.83;6.23;;;21.80;95.50;;;;;;487996;243;28821;-77
2023/06/18 07:39:56;;;;;;;7.60;6.80;;;21.70;95.40;;;;;;488004;243;28905;-78
2023/06/18 07:41:57;;;;;;;5.80;5.30;;;21.90;94.70;;;;;;488072;243;29400;-78
2023/06/18 07:43:58;;;;;;;5.87;5.30;;;21.90;93.20;;;;;;488072;243;29291;-77
2023/06/18 07:45:59;;;;;;;5.40;4.90;;;21.90;91.30;;;;;;488091;243;29311;-78
2023/06/18 07:48:01;;;;;;;5.20;4.70;;;22.00;91.00;;;;;;488074;243;29273;-78
2023/06/18 07:50:02;;;;;;;6.80;4.90;;;22.10;90.30;;;;;;488048;243;28914;-77
2023/06/18 07:52:03;;;;;;;7.30;5.53;;;22.10;88.70;;;;;;488070;243;28931;-78
2023/06/18 07:54:04;;;;;;;5.50;5.00;;;22.40;89.60;;;;;;488059;243;28816;-77
2023/06/18 07:56:06;;;;;;;13.50;5.10;;;22.50;88.10;;;;;;488033;243;28839;-77
2023/06/18 07:58:07;;;;;;;5.70;5.17;;;22.50;87.60;;;;;;488038;243;28906;-77
2023/06/18 08:00:08;;;;;;;5.77;5.27;;;22.50;87.80;;;;;;487984;243;28860;-78
2023/06/18 08:02:09;;;;;;;9.20;5.50;;;22.60;87.90;;;;;;488017;243;28845;-77
2023/06/18 08:04:11;;;;;;;5.77;5.17;;;22.80;89.30;;;;;;488060;243;28935;-77
2023/06/18 08:06:12;;;;;;;5.97;5.03;;;22.90;89.40;;;;;;488052;243;29342;-77
2023/06/18 08:08:13;;;;;;;5.40;4.90;;;23.00;87.40;;;;;;488023;243;29448;-77
2023/06/18 08:10:14;;;;;;;14.57;5.77;;;23.10;89.20;;;;;;488015;243;29342;-78
2023/06/18 08:12:16;;;;;;;5.60;5.03;;;23.10;87.80;;;;;;488032;243;29711;-79
2023/06/18 08:14:17;;;;;;;8.70;5.80;;;22.90;87.20;;;;;;488007;243;28817;-77
2023/06/18 08:16:18;;;;;;;8.20;5.47;;;23.00;87.10;;;;;;488030;243;28846;-78
2023/06/18 08:18:19;;;;;;;5.47;4.93;;;23.10;85.10;;;;;;488046;243;28835;-77
2023/06/18 08:20:21;;;;;;;7.03;5.43;;;23.10;86.10;;;;;;488001;243;28832;-77
2023/06/18 08:22:22;;;;;;;6.23;5.27;;;23.10;84.40;;;;;;488035;243;28840;-77
2023/06/18 08:24:23;;;;;;;5.30;4.80;;;23.10;85.40;;;;;;488069;243;28886;-77
2023/06/18 08:26:24;;;;;;;6.20;5.60;;;23.20;87.10;;;;;;488017;243;28957;-78
2023/06/18 08:28:26;;;;;;;6.70;6.07;;;23.40;86.30;;;;;;488004;243;28813;-77
2023/06/18 08:30:27;;;;;;;6.10;5.60;;;23.60;83.10;;;;;;487986;242;29329;-77
2023/06/18 08:32:28;;;;;;;5.77;5.27;;;23.50;83.00;;;;;;487998;243;29418;-78
2023/06/18 08:34:29;;;;;;;6.27;5.17;;;23.40;83.90;;;;;;488053;243;29391;-77
2023/06/18 08:36:31;;;;;;;5.90;5.10;;;23.40;83.60;;;;;;488019;243;29394;-77
2023/06/18 08:38:32;;;;;;;6.80;5.47;;;23.40;84.80;;;;;;488003;243;28798;-77
2023/06/18 08:40:33;;;;;;;7.13;5.33;;;23.70;81.20;;;;;;487983;243;28885;-78
2023/06/18 08:42:34;;;;;;;6.50;5.40;;;24.10;81.00;;;;;;488073;243;28860;-77
2023/06/18 08:44:36;;;;;;;7.47;5.40;;;24.40;81.60;;;;;;487999;243;28807;-76
2023/06/18 08:46:37;;;;;;;5.60;5.10;;;24.30;80.80;;;;;;488018;243;28894;-77
2023/06/18 08:48:38;;;;;;;6.40;4.90;;;24.40;77.10;;;;;;488003;243;28807;-77
2023/06/18 08:50:39;;;;;;;6.60;5.50;;;24.30;77.00;;;;;;488017;243;28867;-77
2023/06/18 08:52:41;;;;;;;5.90;5.30;;;24.20;79.40;;;;;;488018;243;28889;-79
2023/06/18 08:54:42;;;;;;;5.63;5.13;;;24.20;78.00;;;;;;488042;243;28838;-78
2023/06/18 08:56:43;;;;;;;5.17;4.73;;;24.20;77.90;;;;;;488018;243;29419;-77
2023/06/18 08:58:44;;;;;;;13.53;5.10;;;24.20;77.90;;;;;;488000;243;29247;-77
2023/06/18 09:00:48;;;;;;;5.53;5.03;;;24.20;78.50;;;;;;487970;243;29309;-78
2023/06/18 09:02:47;;;;;;;5.50;5.00;;;24.00;76.80;;;;;;487820;243;28939;-78
2023/06/18 09:04:48;;;;;;;5.10;4.60;;;23.90;75.60;;;;;;488042;243;28851;-77
2023/06/18 09:06:49;;;;;;;5.17;4.70;;;23.80;75.80;;;;;;488048;243;28835;-77
2023/06/18 09:08:51;;;;;;;4.57;4.10;;;23.90;74.80;;;;;;488056;243;28823;-78
2023/06/18 09:10:52;;;;;;;5.27;4.80;;;24.00;75.30;;;;;;488067;243;28848;-78
2023/06/18 09:12:53;;;;;;;5.07;4.67;;;24.10;75.80;;;;;;487998;243;28895;-77
2023/06/18 09:14:54;;;;;;;6.83;4.70;;;24.00;75.70;;;;;;488074;243;28803;-77
2023/06/18 09:16:57;;;;;;;6.00;5.40;;;24.30;75.60;;;;;;487997;243;28960;-79
2023/06/18 09:18:57;;;;;;;6.43;5.73;;;24.50;74.80;;;;;;487942;243;29267;-77
2023/06/18 09:20:58;;;;;;;7.90;5.33;;;25.00;73.80;;;;;;487980;243;29404;-78
2023/06/18 09:22:59;;;;;;;6.70;5.27;;;25.10;72.60;;;;;;487959;243;30156;-77
2023/06/18 09:25:01;;;;;;;7.27;5.50;;;25.00;73.40;;;;;;488034;243;29386;-77
2023/06/18 09:27:02;;;;;;;6.40;5.40;;;25.10;72.60;;;;;;488018;243;28841;-77
2023/06/18 09:29:03;;;;;;;6.43;5.83;;;25.30;71.40;;;;;;487995;243;29297;-78
2023/06/18 09:31:06;;;;;;;8.10;5.43;;;25.40;72.40;;;;;;488000;243;28971;-77
2023/06/18 09:33:06;;;;;;;6.37;5.70;;;25.20;69.70;;;;;;487888;243;28781;-77
2023/06/18 09:35:07;;;;;;;7.00;5.90;;;25.30;70.70;;;;;;488005;243;28933;-77
2023/06/18 09:37:08;;;;;;;8.80;4.90;;;25.20;70.50;;;;;;488031;243;28932;-79
2023/06/18 09:39:09;;;;;;;5.30;4.90;;;25.00;70.60;;;;;;488027;243;28818;-78
2023/06/18 09:41:11;;;;;;;6.00;5.40;;;24.80;72.90;;;;;;487992;243;28886;-78
2023/06/18 09:43:12;;;;;;;5.03;4.60;;;24.80;73.60;;;;;;488013;243;29276;-77
2023/06/18 09:45:14;;;;;;;6.53;5.37;;;24.80;72.50;;;;;;488036;243;29415;-77
2023/06/18 09:47:15;;;;;;;11.40;5.90;;;24.80;74.80;;;;;;488070;243;29331;-77
2023/06/18 09:49:16;;;;;;;6.40;5.10;;;24.90;73.40;;;;;;488050;243;29281;-77
2023/06/18 09:51:17;;;;;;;6.40;4.93;;;24.80;73.10;;;;;;488053;243;28964;-77
2023/06/18 09:53:18;;;;;;;7.17;5.00;;;24.80;73.30;;;;;;488011;243;28811;-77
2023/06/18 09:55:19;;;;;;;6.37;5.77;;;25.10;72.40;;;;;;488020;243;28844;-78
2023/06/18 09:57:21;;;;;;;5.57;5.07;;;25.10;72.80;;;;;;488022;243;29204;-78
2023/06/18 09:59:22;;;;;;;6.90;5.47;;;25.10;72.70;;;;;;488055;243;28879;-77
2023/06/18 10:01:25;;;;;;;6.13;4.90;;;25.00;72.30;;;;;;488037;243;28902;-78
2023/06/18 10:03:24;;;;;;;5.90;5.30;;;25.10;73.00;;;;;;487885;243;28809;-77
2023/06/18 10:05:26;;;;;;;5.53;5.03;;;25.10;73.70;;;;;;488026;243;28832;-77
2023/06/18 10:07:27;;;;;;;7.90;5.47;;;25.00;70.30;;;;;;488076;243;29511;-78
2023/06/18 10:09:28;;;;;;;7.20;5.70;;;24.90;70.30;;;;;;488085;243;29309;-78
2023/06/18 10:11:29;;;;;;;6.93;5.80;;;24.80;70.00;;;;;;488058;243;29321;-78
2023/06/18 10:13:31;;;;;;;5.23;4.73;;;24.90;72.00;;;;;;488059;243;28905;-77
2023/06/18 10:15:32;;;;;;;5.27;4.77;;;24.90;70.80;;;;;;488024;243;28838;-77
2023/06/18 10:17:33;;;;;;;5.83;5.33;;;24.90;71.10;;;;;;488021;243;28917;-77
2023/06/18 10:19:34;;;;;;;8.43;6.80;;;25.10;72.60;;;;;;488025;243;28871;-78
2023/06/18 10:21:36;;;;;;;6.30;5.70;;;25.20;71.90;;;;;;488057;243;28964;-78
2023/06/18 10:23:37;;;;;;;7.70;6.00;;;25.80;73.00;;;;;;488034;243;28821;-78
2023/06/18 10:25:38;;;;;;;6.77;5.50;;;25.90;72.10;;;;;;488021;243;28848;-78
2023/06/18 10:27:40;;;;;;;5.77;5.27;;;26.10;70.80;;;;;;488027;243;28806;-78
2023/06/18 10:29:41;;;;;;;8.50;6.07;;;25.90;68.70;;;;;;488033;243;28881;-77